Terminal Aerodrome Forecast
Issued by NWS

Home | Current Version | Previous Version | Text Only | Print | Product List | Glossary On
Versions: 1 2 3 4 5 6 7 8 9 10 11 12 13
000
FTUS44 KTSA 260119 AAA
TAFBVO
TAF AMD
KBVO 260119Z 2601/2624 VRB11KT P6SM VCTS BKN040CB BKN250
      TEMPO 2602/2604 VRB25G40KT 2SM TSRA BKN025CB
     FM260500 36012KT P6SM VCSH SCT025 BKN035
     FM260800 01011KT 4SM -SHRA BR BKN010
     FM261400 35012G20KT P6SM VCSH BKN008 BKN012
     FM262000 34011KT P6SM BKN025=

USA.gov is the U.S. government's official web portal to all federal, state and local government web resources and services.